TAF KRKD
KRKD 072320Z 0800/0824 VRB03KT P6SM BKN250 FM081600 06005KT 3SM -SN BR OVC040 FM081800 04005KT 3SM -SN BR OVC015=
METAR KRKD
WC KRKD
WS KRKD
WV KRKD